Barnsdall, Oklahoma
Current Conditions -  °F | °C
As of 10:53 AM on Wednesday 26 Nov 2014 (Local Time) from KBVO Reporting Station
Clear Clear  
Wind Chill: 52°   Ceiling: Unl
Heat Index: 52°   Visibility: 10mi
Dew Point: 30°   Wind: 6mph
Humidity: 43%   Direction: NA
Pressure: 30.13"   Gusts: 25mph
Location:  36.56°N, 96.16°W
Report Text: KBVO 261653Z AUTO VRB05G22KT 10SM CLR 11/M01 A3013 RMK AO2 SLP201 T01111011
Loading
Personal Weather Stations






























Interactive Weather Map New forecast layout! Learn more

10-Day Weather Forecast

Advertisements
Track Severe Weather on mobile